sensor_id;sensor_type;location;lat;lon;timestamp;P1;durP1;ratioP1;P2;durP2;ratioP2
75785;SDS011;64402;44.708;37.644;2022-11-14T00:00:40;11.07;;;3.65;;
75785;SDS011;64402;44.708;37.644;2022-11-14T00:03:11;8.93;;;3.58;;
75785;SDS011;64402;44.708;37.644;2022-11-14T00:05:42;8.15;;;3.35;;
75785;SDS011;64402;44.708;37.644;2022-11-14T00:08:13;8.35;;;3.83;;
75785;SDS011;64402;44.708;37.644;2022-11-14T00:10:43;7.47;;;3.50;;
75785;SDS011;64402;44.708;37.644;2022-11-14T00:13:13;8.55;;;3.85;;
75785;SDS011;64402;44.708;37.644;2022-11-14T00:15:41;10.07;;;3.53;;
75785;SDS011;64402;44.708;37.644;2022-11-14T00:18:08;10.80;;;3.72;;
75785;SDS011;64402;44.708;37.644;2022-11-14T00:20:34;8.85;;;3.20;;
75785;SDS011;64402;44.708;37.644;2022-11-14T00:23:01;8.23;;;3.55;;
75785;SDS011;64402;44.708;37.644;2022-11-14T00:25:28;8.45;;;2.95;;
75785;SDS011;64402;44.708;37.644;2022-11-14T00:27:57;8.10;;;3.08;;
75785;SDS011;64402;44.708;37.644;2022-11-14T00:30:25;7.45;;;3.08;;
75785;SDS011;64402;44.708;37.644;2022-11-14T00:32:52;7.45;;;2.90;;
75785;SDS011;64402;44.708;37.644;2022-11-14T00:35:18;9.23;;;2.65;;
75785;SDS011;64402;44.708;37.644;2022-11-14T00:37:45;7.22;;;3.10;;
75785;SDS011;64402;44.708;37.644;2022-11-14T00:40:11;6.57;;;2.63;;
75785;SDS011;64402;44.708;37.644;2022-11-14T00:42:39;7.85;;;2.40;;
75785;SDS011;64402;44.708;37.644;2022-11-14T00:45:07;7.40;;;2.67;;
75785;SDS011;64402;44.708;37.644;2022-11-14T00:47:34;6.55;;;2.33;;
75785;SDS011;64402;44.708;37.644;2022-11-14T00:50:00;6.55;;;2.40;;
75785;SDS011;64402;44.708;37.644;2022-11-14T00:52:27;7.43;;;2.83;;
75785;SDS011;64402;44.708;37.644;2022-11-14T00:54:53;8.13;;;2.85;;
75785;SDS011;64402;44.708;37.644;2022-11-14T00:57:20;6.38;;;2.53;;
75785;SDS011;64402;44.708;37.644;2022-11-14T00:59:46;9.52;;;2.67;;
75785;SDS011;64402;44.708;37.644;2022-11-14T01:02:13;7.22;;;2.40;;
75785;SDS011;64402;44.708;37.644;2022-11-14T01:04:40;6.68;;;2.60;;
75785;SDS011;64402;44.708;37.644;2022-11-14T01:07:06;6.22;;;2.28;;
75785;SDS011;64402;44.708;37.644;2022-11-14T01:09:33;7.05;;;2.72;;
75785;SDS011;64402;44.708;37.644;2022-11-14T01:11:59;5.18;;;1.95;;
75785;SDS011;64402;44.708;37.644;2022-11-14T01:14:26;9.05;;;2.40;;
75785;SDS011;64402;44.708;37.644;2022-11-14T01:16:52;6.22;;;2.20;;
75785;SDS011;64402;44.708;37.644;2022-11-14T01:19:19;6.18;;;2.38;;
75785;SDS011;64402;44.708;37.644;2022-11-14T01:21:45;6.70;;;2.20;;
75785;SDS011;64402;44.708;37.644;2022-11-14T01:24:12;7.80;;;2.42;;
75785;SDS011;64402;44.708;37.644;2022-11-14T01:26:38;8.35;;;2.20;;
75785;SDS011;64402;44.708;37.644;2022-11-14T01:29:05;6.43;;;2.08;;
75785;SDS011;64402;44.708;37.644;2022-11-14T01:31:31;6.68;;;2.03;;
75785;SDS011;64402;44.708;37.644;2022-11-14T01:33:58;8.90;;;2.08;;
75785;SDS011;64402;44.708;37.644;2022-11-14T01:36:24;8.35;;;2.40;;
75785;SDS011;64402;44.708;37.644;2022-11-14T01:38:51;7.32;;;2.33;;
75785;SDS011;64402;44.708;37.644;2022-11-14T01:43:45;6.55;;;2.08;;
75785;SDS011;64402;44.708;37.644;2022-11-14T01:53:56;6.40;;;2.30;;
75785;SDS011;64402;44.708;37.644;2022-11-14T01:56:28;5.65;;;2.08;;
75785;SDS011;64402;44.708;37.644;2022-11-14T01:59:02;11.48;;;4.95;;
75785;SDS011;64402;44.708;37.644;2022-11-14T02:01:33;7.45;;;2.33;;
75785;SDS011;64402;44.708;37.644;2022-11-14T02:04:02;6.47;;;2.53;;
75785;SDS011;64402;44.708;37.644;2022-11-14T02:06:31;5.68;;;1.80;;
75785;SDS011;64402;44.708;37.644;2022-11-14T02:09:00;6.15;;;1.60;;
75785;SDS011;64402;44.708;37.644;2022-11-14T02:11:30;6.18;;;2.10;;
75785;SDS011;64402;44.708;37.644;2022-11-14T02:14:01;4.88;;;1.90;;
75785;SDS011;64402;44.708;37.644;2022-11-14T02:16:27;6.30;;;2.17;;
75785;SDS011;64402;44.708;37.644;2022-11-14T02:18:54;5.95;;;1.90;;
75785;SDS011;64402;44.708;37.644;2022-11-14T02:21:21;4.85;;;1.85;;
75785;SDS011;64402;44.708;37.644;2022-11-14T02:23:47;6.55;;;2.22;;
75785;SDS011;64402;44.708;37.644;2022-11-14T02:26:15;9.02;;;2.40;;
75785;SDS011;64402;44.708;37.644;2022-11-14T02:28:46;6.25;;;2.22;;
75785;SDS011;64402;44.708;37.644;2022-11-14T02:31:13;7.38;;;2.17;;
75785;SDS011;64402;44.708;37.644;2022-11-14T02:36:07;7.80;;;2.15;;
75785;SDS011;64402;44.708;37.644;2022-11-14T02:38:34;8.18;;;2.45;;
75785;SDS011;64402;44.708;37.644;2022-11-14T02:41:01;5.32;;;1.90;;
75785;SDS011;64402;44.708;37.644;2022-11-14T02:43:27;6.15;;;2.35;;
75785;SDS011;64402;44.708;37.644;2022-11-14T02:45:54;5.35;;;1.85;;
75785;SDS011;64402;44.708;37.644;2022-11-14T02:48:20;4.55;;;1.70;;
75785;SDS011;64402;44.708;37.644;2022-11-14T02:50:47;6.32;;;1.80;;
75785;SDS011;64402;44.708;37.644;2022-11-14T02:53:14;4.47;;;1.40;;
75785;SDS011;64402;44.708;37.644;2022-11-14T02:55:41;5.70;;;1.70;;
75785;SDS011;64402;44.708;37.644;2022-11-14T02:58:07;4.78;;;1.65;;
75785;SDS011;64402;44.708;37.644;2022-11-14T03:00:34;5.28;;;1.75;;
75785;SDS011;64402;44.708;37.644;2022-11-14T03:03:00;5.78;;;1.73;;
75785;SDS011;64402;44.708;37.644;2022-11-14T03:05:29;7.00;;;2.08;;
75785;SDS011;64402;44.708;37.644;2022-11-14T03:07:56;6.13;;;2.13;;
75785;SDS011;64402;44.708;37.644;2022-11-14T03:10:23;4.28;;;1.60;;
75785;SDS011;64402;44.708;37.644;2022-11-14T03:12:53;5.28;;;1.80;;
75785;SDS011;64402;44.708;37.644;2022-11-14T03:15:20;5.38;;;1.95;;
75785;SDS011;64402;44.708;37.644;2022-11-14T03:17:47;8.95;;;2.33;;
75785;SDS011;64402;44.708;37.644;2022-11-14T03:20:14;7.40;;;1.90;;
75785;SDS011;64402;44.708;37.644;2022-11-14T03:22:41;7.10;;;2.10;;
75785;SDS011;64402;44.708;37.644;2022-11-14T03:25:07;5.20;;;2.13;;
75785;SDS011;64402;44.708;37.644;2022-11-14T03:27:34;5.90;;;2.00;;
75785;SDS011;64402;44.708;37.644;2022-11-14T03:30:01;5.93;;;1.98;;
75785;SDS011;64402;44.708;37.644;2022-11-14T03:32:28;5.80;;;2.00;;
75785;SDS011;64402;44.708;37.644;2022-11-14T03:34:54;5.43;;;1.98;;
75785;SDS011;64402;44.708;37.644;2022-11-14T03:37:21;10.05;;;3.17;;
75785;SDS011;64402;44.708;37.644;2022-11-14T03:39:47;10.75;;;3.15;;
75785;SDS011;64402;44.708;37.644;2022-11-14T03:42:14;12.55;;;4.10;;
75785;SDS011;64402;44.708;37.644;2022-11-14T03:44:40;13.10;;;3.65;;
75785;SDS011;64402;44.708;37.644;2022-11-14T03:47:10;11.40;;;3.75;;
75785;SDS011;64402;44.708;37.644;2022-11-14T03:49:37;16.40;;;3.75;;
75785;SDS011;64402;44.708;37.644;2022-11-14T03:52:04;12.95;;;3.58;;
75785;SDS011;64402;44.708;37.644;2022-11-14T03:54:30;13.50;;;3.33;;
75785;SDS011;64402;44.708;37.644;2022-11-14T03:56:57;8.02;;;3.03;;
75785;SDS011;64402;44.708;37.644;2022-11-14T03:59:24;9.45;;;3.22;;
75785;SDS011;64402;44.708;37.644;2022-11-14T04:01:50;12.00;;;3.53;;
75785;SDS011;64402;44.708;37.644;2022-11-14T04:04:17;9.15;;;3.53;;
75785;SDS011;64402;44.708;37.644;2022-11-14T04:06:43;11.57;;;3.47;;
75785;SDS011;64402;44.708;37.644;2022-11-14T04:09:10;8.95;;;3.30;;
75785;SDS011;64402;44.708;37.644;2022-11-14T04:11:37;8.77;;;3.83;;
75785;SDS011;64402;44.708;37.644;2022-11-14T04:14:03;13.45;;;5.20;;
75785;SDS011;64402;44.708;37.644;2022-11-14T04:16:30;17.85;;;6.32;;
75785;SDS011;64402;44.708;37.644;2022-11-14T04:18:57;13.57;;;5.35;;
75785;SDS011;64402;44.708;37.644;2022-11-14T04:21:23;17.58;;;6.72;;
75785;SDS011;64402;44.708;37.644;2022-11-14T04:23:50;13.93;;;5.18;;
75785;SDS011;64402;44.708;37.644;2022-11-14T04:26:16;10.63;;;4.03;;
75785;SDS011;64402;44.708;37.644;2022-11-14T04:28:43;12.90;;;5.30;;
75785;SDS011;64402;44.708;37.644;2022-11-14T04:31:09;17.05;;;7.05;;
75785;SDS011;64402;44.708;37.644;2022-11-14T04:33:36;20.52;;;7.70;;
75785;SDS011;64402;44.708;37.644;2022-11-14T04:36:02;18.55;;;8.38;;
75785;SDS011;64402;44.708;37.644;2022-11-14T04:38:29;20.83;;;7.93;;
75785;SDS011;64402;44.708;37.644;2022-11-14T04:40:56;12.27;;;5.95;;
75785;SDS011;64402;44.708;37.644;2022-11-14T04:43:22;11.98;;;4.78;;
75785;SDS011;64402;44.708;37.644;2022-11-14T04:45:49;47.35;;;21.42;;
75785;SDS011;64402;44.708;37.644;2022-11-14T04:48:15;37.20;;;17.55;;
75785;SDS011;64402;44.708;37.644;2022-11-14T04:50:43;23.98;;;12.23;;
75785;SDS011;64402;44.708;37.644;2022-11-14T04:53:11;18.83;;;9.85;;
75785;SDS011;64402;44.708;37.644;2022-11-14T04:55:37;8.98;;;5.03;;
75785;SDS011;64402;44.708;37.644;2022-11-14T04:58:04;12.90;;;5.18;;
75785;SDS011;64402;44.708;37.644;2022-11-14T05:00:30;10.63;;;4.72;;
75785;SDS011;64402;44.708;37.644;2022-11-14T05:02:57;17.45;;;7.10;;
75785;SDS011;64402;44.708;37.644;2022-11-14T05:05:25;27.60;;;10.57;;
75785;SDS011;64402;44.708;37.644;2022-11-14T05:07:52;15.07;;;7.18;;
75785;SDS011;64402;44.708;37.644;2022-11-14T05:10:19;18.13;;;7.60;;
75785;SDS011;64402;44.708;37.644;2022-11-14T05:12:45;12.55;;;5.63;;
75785;SDS011;64402;44.708;37.644;2022-11-14T05:15:12;12.82;;;4.72;;
75785;SDS011;64402;44.708;37.644;2022-11-14T05:17:38;10.52;;;4.63;;
75785;SDS011;64402;44.708;37.644;2022-11-14T05:20:05;11.48;;;4.68;;
75785;SDS011;64402;44.708;37.644;2022-11-14T05:22:32;14.65;;;5.35;;
75785;SDS011;64402;44.708;37.644;2022-11-14T05:24:58;13.55;;;5.32;;
75785;SDS011;64402;44.708;37.644;2022-11-14T05:27:25;11.30;;;4.40;;
75785;SDS011;64402;44.708;37.644;2022-11-14T05:32:20;14.13;;;3.67;;
75785;SDS011;64402;44.708;37.644;2022-11-14T05:34:47;13.43;;;3.40;;
75785;SDS011;64402;44.708;37.644;2022-11-14T05:37:13;6.57;;;3.13;;
75785;SDS011;64402;44.708;37.644;2022-11-14T05:39:40;9.30;;;3.10;;
75785;SDS011;64402;44.708;37.644;2022-11-14T05:42:07;8.05;;;3.40;;
75785;SDS011;64402;44.708;37.644;2022-11-14T05:44:33;10.75;;;3.85;;
75785;SDS011;64402;44.708;37.644;2022-11-14T05:47:00;8.50;;;3.65;;
75785;SDS011;64402;44.708;37.644;2022-11-14T05:49:26;8.90;;;3.33;;
75785;SDS011;64402;44.708;37.644;2022-11-14T05:51:53;8.80;;;3.65;;
75785;SDS011;64402;44.708;37.644;2022-11-14T05:54:20;11.52;;;4.68;;
75785;SDS011;64402;44.708;37.644;2022-11-14T05:56:46;10.40;;;4.30;;
75785;SDS011;64402;44.708;37.644;2022-11-14T05:59:13;9.48;;;3.70;;
75785;SDS011;64402;44.708;37.644;2022-11-14T06:01:39;9.52;;;3.80;;
75785;SDS011;64402;44.708;37.644;2022-11-14T06:04:06;12.05;;;4.50;;
75785;SDS011;64402;44.708;37.644;2022-11-14T06:06:33;9.23;;;3.78;;
75785;SDS011;64402;44.708;37.644;2022-11-14T06:08:59;7.75;;;3.70;;
75785;SDS011;64402;44.708;37.644;2022-11-14T06:11:26;7.47;;;3.22;;
75785;SDS011;64402;44.708;37.644;2022-11-14T06:13:52;8.65;;;3.65;;
75785;SDS011;64402;44.708;37.644;2022-11-14T06:16:19;8.45;;;3.58;;
75785;SDS011;64402;44.708;37.644;2022-11-14T06:18:46;10.25;;;4.20;;
75785;SDS011;64402;44.708;37.644;2022-11-14T06:21:14;8.13;;;4.00;;
75785;SDS011;64402;44.708;37.644;2022-11-14T06:23:42;8.65;;;3.78;;
75785;SDS011;64402;44.708;37.644;2022-11-14T06:26:23;8.05;;;3.53;;
75785;SDS011;64402;44.708;37.644;2022-11-14T06:28:52;7.05;;;2.97;;
75785;SDS011;64402;44.708;37.644;2022-11-14T06:31:19;8.52;;;3.65;;
75785;SDS011;64402;44.708;37.644;2022-11-14T06:33:46;9.35;;;4.07;;
75785;SDS011;64402;44.708;37.644;2022-11-14T06:36:13;9.60;;;3.78;;
75785;SDS011;64402;44.708;37.644;2022-11-14T06:38:40;7.70;;;3.90;;
75785;SDS011;64402;44.708;37.644;2022-11-14T06:43:36;8.57;;;3.22;;
75785;SDS011;64402;44.708;37.644;2022-11-14T06:46:07;9.35;;;3.83;;
75785;SDS011;64402;44.708;37.644;2022-11-14T06:48:35;6.95;;;3.40;;
75785;SDS011;64402;44.708;37.644;2022-11-14T06:53:30;11.75;;;5.85;;
75785;SDS011;64402;44.708;37.644;2022-11-14T06:55:59;12.73;;;6.00;;
75785;SDS011;64402;44.708;37.644;2022-11-14T06:58:26;9.63;;;3.92;;
75785;SDS011;64402;44.708;37.644;2022-11-14T07:00:54;10.07;;;4.78;;
75785;SDS011;64402;44.708;37.644;2022-11-14T07:03:21;8.05;;;3.72;;
75785;SDS011;64402;44.708;37.644;2022-11-14T07:05:48;8.00;;;4.18;;
75785;SDS011;64402;44.708;37.644;2022-11-14T07:08:15;11.88;;;6.22;;
75785;SDS011;64402;44.708;37.644;2022-11-14T07:10:41;11.23;;;6.18;;
75785;SDS011;64402;44.708;37.644;2022-11-14T07:13:08;15.63;;;6.65;;
75785;SDS011;64402;44.708;37.644;2022-11-14T07:18:03;10.57;;;5.70;;
75785;SDS011;64402;44.708;37.644;2022-11-14T07:20:29;17.80;;;7.57;;
75785;SDS011;64402;44.708;37.644;2022-11-14T07:22:56;21.52;;;10.15;;
75785;SDS011;64402;44.708;37.644;2022-11-14T07:25:22;14.10;;;7.90;;
75785;SDS011;64402;44.708;37.644;2022-11-14T07:27:49;9.63;;;4.93;;
75785;SDS011;64402;44.708;37.644;2022-11-14T07:30:15;8.25;;;4.40;;
75785;SDS011;64402;44.708;37.644;2022-11-14T07:32:42;16.33;;;6.15;;
75785;SDS011;64402;44.708;37.644;2022-11-14T07:35:09;10.98;;;4.80;;
75785;SDS011;64402;44.708;37.644;2022-11-14T07:37:35;8.05;;;4.15;;
75785;SDS011;64402;44.708;37.644;2022-11-14T07:40:02;9.80;;;4.65;;
75785;SDS011;64402;44.708;37.644;2022-11-14T07:42:29;9.98;;;4.38;;
75785;SDS011;64402;44.708;37.644;2022-11-14T07:44:55;12.18;;;5.03;;
75785;SDS011;64402;44.708;37.644;2022-11-14T07:47:22;16.65;;;5.32;;
75785;SDS011;64402;44.708;37.644;2022-11-14T07:49:48;10.05;;;4.43;;
75785;SDS011;64402;44.708;37.644;2022-11-14T07:52:15;8.18;;;4.90;;
75785;SDS011;64402;44.708;37.644;2022-11-14T07:54:41;9.82;;;5.10;;
75785;SDS011;64402;44.708;37.644;2022-11-14T07:57:08;8.50;;;4.22;;
75785;SDS011;64402;44.708;37.644;2022-11-14T07:59:34;10.02;;;5.00;;
75785;SDS011;64402;44.708;37.644;2022-11-14T08:02:01;14.15;;;4.55;;
75785;SDS011;64402;44.708;37.644;2022-11-14T08:04:27;9.75;;;4.07;;
75785;SDS011;64402;44.708;37.644;2022-11-14T08:06:54;10.73;;;4.30;;
75785;SDS011;64402;44.708;37.644;2022-11-14T08:09:21;11.02;;;3.85;;
75785;SDS011;64402;44.708;37.644;2022-11-14T08:11:48;11.30;;;6.05;;
75785;SDS011;64402;44.708;37.644;2022-11-14T08:14:15;9.93;;;5.00;;
75785;SDS011;64402;44.708;37.644;2022-11-14T08:16:41;8.98;;;4.25;;
75785;SDS011;64402;44.708;37.644;2022-11-14T08:19:08;9.50;;;4.30;;
75785;SDS011;64402;44.708;37.644;2022-11-14T08:21:35;9.35;;;5.07;;
75785;SDS011;64402;44.708;37.644;2022-11-14T08:24:01;8.57;;;4.15;;
75785;SDS011;64402;44.708;37.644;2022-11-14T08:26:28;11.07;;;5.32;;
75785;SDS011;64402;44.708;37.644;2022-11-14T08:28:55;11.75;;;5.00;;
75785;SDS011;64402;44.708;37.644;2022-11-14T08:31:22;9.82;;;4.97;;
75785;SDS011;64402;44.708;37.644;2022-11-14T08:33:50;9.90;;;4.95;;
75785;SDS011;64402;44.708;37.644;2022-11-14T08:36:17;9.50;;;4.85;;
75785;SDS011;64402;44.708;37.644;2022-11-14T08:38:43;10.60;;;5.20;;
75785;SDS011;64402;44.708;37.644;2022-11-14T08:41:10;11.10;;;5.03;;
75785;SDS011;64402;44.708;37.644;2022-11-14T08:43:37;9.55;;;4.53;;
75785;SDS011;64402;44.708;37.644;2022-11-14T08:46:04;8.52;;;4.63;;
75785;SDS011;64402;44.708;37.644;2022-11-14T08:48:31;13.70;;;4.13;;
75785;SDS011;64402;44.708;37.644;2022-11-14T08:51:03;10.98;;;4.85;;
75785;SDS011;64402;44.708;37.644;2022-11-14T08:53:31;13.32;;;5.10;;
75785;SDS011;64402;44.708;37.644;2022-11-14T08:55:59;27.38;;;10.32;;
75785;SDS011;64402;44.708;37.644;2022-11-14T08:58:26;8.10;;;3.95;;
75785;SDS011;64402;44.708;37.644;2022-11-14T09:00:59;9.57;;;3.22;;
75785;SDS011;64402;44.708;37.644;2022-11-14T09:03:30;7.65;;;3.63;;
75785;SDS011;64402;44.708;37.644;2022-11-14T09:05:57;9.45;;;4.18;;
75785;SDS011;64402;44.708;37.644;2022-11-14T09:08:25;8.23;;;3.60;;
75785;SDS011;64402;44.708;37.644;2022-11-14T09:10:52;7.55;;;3.90;;
75785;SDS011;64402;44.708;37.644;2022-11-14T09:13:19;8.10;;;3.75;;
75785;SDS011;64402;44.708;37.644;2022-11-14T09:15:47;10.32;;;4.38;;
75785;SDS011;64402;44.708;37.644;2022-11-14T09:18:13;11.07;;;4.65;;
75785;SDS011;64402;44.708;37.644;2022-11-14T09:20:40;14.32;;;5.22;;
75785;SDS011;64402;44.708;37.644;2022-11-14T09:23:06;10.05;;;3.88;;
75785;SDS011;64402;44.708;37.644;2022-11-14T09:25:34;14.70;;;5.80;;
75785;SDS011;64402;44.708;37.644;2022-11-14T09:28:07;14.82;;;5.10;;
75785;SDS011;64402;44.708;37.644;2022-11-14T09:30:34;11.45;;;4.22;;
75785;SDS011;64402;44.708;37.644;2022-11-14T09:33:02;8.80;;;3.90;;
75785;SDS011;64402;44.708;37.644;2022-11-14T09:35:30;11.05;;;4.45;;
75785;SDS011;64402;44.708;37.644;2022-11-14T09:37:59;11.25;;;4.35;;
75785;SDS011;64402;44.708;37.644;2022-11-14T09:40:33;10.70;;;4.13;;
75785;SDS011;64402;44.708;37.644;2022-11-14T09:45:45;9.77;;;4.80;;
75785;SDS011;64402;44.708;37.644;2022-11-14T09:48:17;9.90;;;4.28;;
75785;SDS011;64402;44.708;37.644;2022-11-14T09:50:47;11.95;;;4.60;;
75785;SDS011;64402;44.708;37.644;2022-11-14T09:53:50;6.95;;;3.30;;
75785;SDS011;64402;44.708;37.644;2022-11-14T09:56:22;7.90;;;3.28;;
75785;SDS011;64402;44.708;37.644;2022-11-14T09:58:50;8.45;;;3.08;;
75785;SDS011;64402;44.708;37.644;2022-11-14T10:04:18;11.35;;;4.00;;
75785;SDS011;64402;44.708;37.644;2022-11-14T10:12:03;11.80;;;3.60;;
75785;SDS011;64402;44.708;37.644;2022-11-14T10:14:45;11.80;;;4.57;;
75785;SDS011;64402;44.708;37.644;2022-11-14T10:17:35;10.05;;;4.10;;
75785;SDS011;64402;44.708;37.644;2022-11-14T10:28:39;10.02;;;4.47;;
75785;SDS011;64402;44.708;37.644;2022-11-14T10:34:12;9.90;;;4.40;;
75785;SDS011;64402;44.708;37.644;2022-11-14T10:41:46;7.68;;;3.47;;
75785;SDS011;64402;44.708;37.644;2022-11-14T10:44:21;11.75;;;3.85;;
75785;SDS011;64402;44.708;37.644;2022-11-14T10:46:54;10.10;;;4.35;;
75785;SDS011;64402;44.708;37.644;2022-11-14T10:51:57;9.30;;;3.70;;
75785;SDS011;64402;44.708;37.644;2022-11-14T10:54:31;7.10;;;3.13;;
75785;SDS011;64402;44.708;37.644;2022-11-14T10:57:00;9.25;;;3.70;;
75785;SDS011;64402;44.708;37.644;2022-11-14T10:59:27;7.90;;;3.55;;
75785;SDS011;64402;44.708;37.644;2022-11-14T11:01:54;14.02;;;4.25;;
75785;SDS011;64402;44.708;37.644;2022-11-14T11:04:29;10.15;;;3.55;;
75785;SDS011;64402;44.708;37.644;2022-11-14T11:09:37;7.82;;;3.83;;
75785;SDS011;64402;44.708;37.644;2022-11-14T11:12:24;10.30;;;4.10;;
75785;SDS011;64402;44.708;37.644;2022-11-14T11:15:16;12.05;;;4.00;;
75785;SDS011;64402;44.708;37.644;2022-11-14T11:20:23;7.78;;;3.45;;
75785;SDS011;64402;44.708;37.644;2022-11-14T11:23:46;9.88;;;3.90;;
75785;SDS011;64402;44.708;37.644;2022-11-14T11:25:50;7.60;;;3.65;;
75785;SDS011;64402;44.708;37.644;2022-11-14T11:28:32;7.97;;;3.20;;
75785;SDS011;64402;44.708;37.644;2022-11-14T11:31:02;7.97;;;3.78;;
75785;SDS011;64402;44.708;37.644;2022-11-14T11:33:34;7.90;;;3.28;;
75785;SDS011;64402;44.708;37.644;2022-11-14T11:36:16;9.32;;;3.70;;
75785;SDS011;64402;44.708;37.644;2022-11-14T11:38:44;11.98;;;3.40;;
75785;SDS011;64402;44.708;37.644;2022-11-14T11:41:31;8.20;;;3.40;;
75785;SDS011;64402;44.708;37.644;2022-11-14T11:44:02;8.90;;;3.70;;
75785;SDS011;64402;44.708;37.644;2022-11-14T11:49:22;8.88;;;2.97;;
75785;SDS011;64402;44.708;37.644;2022-11-14T11:51:52;10.90;;;3.90;;
75785;SDS011;64402;44.708;37.644;2022-11-14T11:54:26;7.88;;;3.45;;
75785;SDS011;64402;44.708;37.644;2022-11-14T11:56:59;6.90;;;3.25;;
75785;SDS011;64402;44.708;37.644;2022-11-14T11:59:32;8.07;;;3.40;;
75785;SDS011;64402;44.708;37.644;2022-11-14T12:02:16;8.77;;;3.50;;
75785;SDS011;64402;44.708;37.644;2022-11-14T12:04:55;6.45;;;3.03;;
75785;SDS011;64402;44.708;37.644;2022-11-14T12:07:35;8.88;;;4.10;;
75785;SDS011;64402;44.708;37.644;2022-11-14T12:10:26;9.43;;;4.10;;
75785;SDS011;64402;44.708;37.644;2022-11-14T12:15:52;8.30;;;3.10;;
75785;SDS011;64402;44.708;37.644;2022-11-14T12:23:58;9.30;;;3.63;;
75785;SDS011;64402;44.708;37.644;2022-11-14T12:31:58;9.23;;;3.45;;
75785;SDS011;64402;44.708;37.644;2022-11-14T12:34:30;10.90;;;3.10;;
75785;SDS011;64402;44.708;37.644;2022-11-14T12:36:58;8.38;;;3.30;;
75785;SDS011;64402;44.708;37.644;2022-11-14T12:39:25;8.02;;;3.17;;
75785;SDS011;64402;44.708;37.644;2022-11-14T12:42:04;7.25;;;2.75;;
75785;SDS011;64402;44.708;37.644;2022-11-14T12:44:36;9.95;;;3.00;;
75785;SDS011;64402;44.708;37.644;2022-11-14T13:01:18;10.07;;;3.88;;
75785;SDS011;64402;44.708;37.644;2022-11-14T13:06:09;13.68;;;3.50;;
75785;SDS011;64402;44.708;37.644;2022-11-14T13:11:53;14.30;;;6.05;;
75785;SDS011;64402;44.708;37.644;2022-11-14T13:14:51;10.15;;;3.90;;
75785;SDS011;64402;44.708;37.644;2022-11-14T13:17:38;8.85;;;3.63;;
75785;SDS011;64402;44.708;37.644;2022-11-14T13:20:24;9.95;;;3.17;;
75785;SDS011;64402;44.708;37.644;2022-11-14T13:33:56;22.23;;;8.18;;
75785;SDS011;64402;44.708;37.644;2022-11-14T13:47:04;20.65;;;4.30;;
75785;SDS011;64402;44.708;37.644;2022-11-14T13:50:13;14.18;;;3.13;;
75785;SDS011;64402;44.708;37.644;2022-11-14T13:55:47;10.90;;;3.05;;
75785;SDS011;64402;44.708;37.644;2022-11-14T14:09:14;11.65;;;3.78;;
75785;SDS011;64402;44.708;37.644;2022-11-14T14:12:16;16.98;;;4.28;;
75785;SDS011;64402;44.708;37.644;2022-11-14T14:23:26;18.42;;;5.20;;
75785;SDS011;64402;44.708;37.644;2022-11-14T14:26:03;16.10;;;4.40;;
75785;SDS011;64402;44.708;37.644;2022-11-14T14:31:15;25.13;;;5.20;;
75785;SDS011;64402;44.708;37.644;2022-11-14T14:33:48;15.63;;;4.63;;
75785;SDS011;64402;44.708;37.644;2022-11-14T14:36:17;15.55;;;4.28;;
75785;SDS011;64402;44.708;37.644;2022-11-14T14:38:49;15.60;;;4.15;;
75785;SDS011;64402;44.708;37.644;2022-11-14T14:41:17;11.52;;;3.80;;
75785;SDS011;64402;44.708;37.644;2022-11-14T14:43:52;22.00;;;5.55;;
75785;SDS011;64402;44.708;37.644;2022-11-14T14:46:28;21.00;;;8.40;;
75785;SDS011;64402;44.708;37.644;2022-11-14T14:48:56;14.75;;;6.88;;
75785;SDS011;64402;44.708;37.644;2022-11-14T14:51:32;11.05;;;4.65;;
75785;SDS011;64402;44.708;37.644;2022-11-14T14:54:00;13.27;;;4.43;;
75785;SDS011;64402;44.708;37.644;2022-11-14T14:56:27;16.73;;;4.85;;
75785;SDS011;64402;44.708;37.644;2022-11-14T14:58:54;12.13;;;3.97;;
75785;SDS011;64402;44.708;37.644;2022-11-14T15:01:21;19.58;;;4.40;;
75785;SDS011;64402;44.708;37.644;2022-11-14T15:04:05;11.05;;;3.85;;
75785;SDS011;64402;44.708;37.644;2022-11-14T15:06:34;9.95;;;4.07;;
75785;SDS011;64402;44.708;37.644;2022-11-14T15:11:33;15.88;;;5.15;;
75785;SDS011;64402;44.708;37.644;2022-11-14T15:14:00;14.73;;;4.65;;
75785;SDS011;64402;44.708;37.644;2022-11-14T15:16:28;19.90;;;4.85;;
75785;SDS011;64402;44.708;37.644;2022-11-14T15:18:55;16.40;;;5.32;;
75785;SDS011;64402;44.708;37.644;2022-11-14T15:21:26;17.95;;;6.05;;
75785;SDS011;64402;44.708;37.644;2022-11-14T15:23:58;14.05;;;5.05;;
75785;SDS011;64402;44.708;37.644;2022-11-14T15:26:28;11.32;;;3.95;;
75785;SDS011;64402;44.708;37.644;2022-11-14T15:29:06;14.77;;;4.68;;
75785;SDS011;64402;44.708;37.644;2022-11-14T15:31:43;10.98;;;4.68;;
75785;SDS011;64402;44.708;37.644;2022-11-14T15:34:35;10.38;;;5.00;;
75785;SDS011;64402;44.708;37.644;2022-11-14T15:39:46;11.32;;;4.45;;
75785;SDS011;64402;44.708;37.644;2022-11-14T15:44:55;16.00;;;7.00;;
75785;SDS011;64402;44.708;37.644;2022-11-14T15:49:56;18.88;;;7.65;;
75785;SDS011;64402;44.708;37.644;2022-11-14T15:54:59;28.38;;;11.38;;
75785;SDS011;64402;44.708;37.644;2022-11-14T15:57:30;26.83;;;14.80;;
75785;SDS011;64402;44.708;37.644;2022-11-14T15:59:57;34.20;;;17.40;;
75785;SDS011;64402;44.708;37.644;2022-11-14T16:02:28;23.40;;;11.52;;
75785;SDS011;64402;44.708;37.644;2022-11-14T16:04:57;21.00;;;10.88;;
75785;SDS011;64402;44.708;37.644;2022-11-14T16:07:25;17.85;;;6.45;;
75785;SDS011;64402;44.708;37.644;2022-11-14T16:09:52;20.08;;;8.02;;
75785;SDS011;64402;44.708;37.644;2022-11-14T16:12:20;34.42;;;12.43;;
75785;SDS011;64402;44.708;37.644;2022-11-14T16:14:46;32.72;;;17.65;;
75785;SDS011;64402;44.708;37.644;2022-11-14T16:17:14;22.63;;;9.48;;
75785;SDS011;64402;44.708;37.644;2022-11-14T16:19:42;18.27;;;10.02;;
75785;SDS011;64402;44.708;37.644;2022-11-14T16:22:10;19.33;;;7.15;;
75785;SDS011;64402;44.708;37.644;2022-11-14T16:24:40;17.05;;;8.15;;
75785;SDS011;64402;44.708;37.644;2022-11-14T16:27:07;33.28;;;13.68;;
75785;SDS011;64402;44.708;37.644;2022-11-14T16:29:34;18.27;;;8.13;;
75785;SDS011;64402;44.708;37.644;2022-11-14T16:32:01;13.45;;;5.20;;
75785;SDS011;64402;44.708;37.644;2022-11-14T16:34:28;10.18;;;4.93;;
75785;SDS011;64402;44.708;37.644;2022-11-14T16:36:59;12.55;;;4.60;;
75785;SDS011;64402;44.708;37.644;2022-11-14T16:39:26;11.75;;;5.45;;
75785;SDS011;64402;44.708;37.644;2022-11-14T16:41:58;15.60;;;5.88;;
75785;SDS011;64402;44.708;37.644;2022-11-14T16:44:27;11.82;;;5.75;;
75785;SDS011;64402;44.708;37.644;2022-11-14T16:46:53;13.65;;;5.75;;
75785;SDS011;64402;44.708;37.644;2022-11-14T16:49:20;14.73;;;6.40;;
75785;SDS011;64402;44.708;37.644;2022-11-14T16:51:47;10.07;;;4.93;;
75785;SDS011;64402;44.708;37.644;2022-11-14T16:54:18;15.00;;;7.63;;
75785;SDS011;64402;44.708;37.644;2022-11-14T16:56:45;24.95;;;8.77;;
75785;SDS011;64402;44.708;37.644;2022-11-14T16:59:12;23.00;;;10.70;;
75785;SDS011;64402;44.708;37.644;2022-11-14T17:01:39;20.45;;;11.00;;
75785;SDS011;64402;44.708;37.644;2022-11-14T17:04:06;18.88;;;9.27;;
75785;SDS011;64402;44.708;37.644;2022-11-14T17:06:32;36.20;;;16.98;;
75785;SDS011;64402;44.708;37.644;2022-11-14T17:08:59;34.33;;;17.63;;
75785;SDS011;64402;44.708;37.644;2022-11-14T17:11:26;22.15;;;10.95;;
75785;SDS011;64402;44.708;37.644;2022-11-14T17:13:53;21.30;;;9.70;;